Impacts TAF Board
For situational awareness. Not to be used for flight planning purposes.
IDs:

KDCA - Washington/National, VA, US

Issued at 2103 UTC 19 Jan 2019
Updated at 2303 UTC 19 Jan 2019
Potential Impact None Slight Moderate High
Time<<21/00Z 21/01Z 21/02Z 21/03Z 21/04Z 21/05Z 21/06Z 21/07Z 21/08Z 21/09Z 21/10Z 21/11Z 21/12Z
Type
VIS
CIG
Cover
FltCat
WX
WDir
WSpd
WGst
Raw TAF
KDCA 192103Z 1921/2024 09008KT 5SM -RA BR OVC015
  FM192300 11010G17KT 3SM -RA OVC008
  FM200100 11010G17KT 1 1/2SM -RA OVC003
  FM200300 15008KT 1SM -RA OVC003 WS020/20035KT
  FM201200 30014G25KT P6SM OVC020
  FM201800 32019G33KT P6SM BKN035


METAR Board
Radar Display
Forecast Discussion
For situational awareness. Not to be used for flight planning purposes.